<?xml version="1.0" encoding="UTF-8" standalone="no" ?>
<gpx xmlns="http://www.topografix.com/GPX/1/1" xmlns:xsi="http://www.w3.org/2001/XMLSchema-instance" xsi:schemaLocation="http://www.topografix.com/GPX/1/1 http://www.topografix.com/GPX/1/1/gpx.xsd" version="1.1" creator="VisuGPX - https://www.visugpx.com">
  <metadata>
    <name>2020-90-21-Bach</name>
    <desc><![CDATA[Randonnée de 10km sans difficulté, de nombreux puits, lavoirs, ainsi que des garriottes à découvrir sur ce parcours ]]></desc>
  </metadata>
  <trk>
    <name><![CDATA[12031416-Bach 2020]]></name>
    <trkseg>
      <trkpt lat="44.35056" lon="1.67148">
        <ele>320</ele>
        <time>2020-09-14T10:32:02Z</time>
      </trkpt>
      <trkpt lat="44.35011" lon="1.67119">
        <ele>320</ele>
        <time>2020-09-14T10:33:08Z</time>
      </trkpt>
      <trkpt lat="44.34997" lon="1.67136">
        <ele>320</ele>
        <time>2020-09-14T10:33:33Z</time>
      </trkpt>
      <trkpt lat="44.34953" lon="1.67124">
        <ele>320</ele>
        <time>2020-09-14T10:34:33Z</time>
      </trkpt>
      <trkpt lat="44.34898" lon="1.67047">
        <ele>319</ele>
        <time>2020-09-14T10:36:17Z</time>
      </trkpt>
      <trkpt lat="44.34907" lon="1.67025">
        <ele>319</ele>
        <time>2020-09-14T10:36:41Z</time>
      </trkpt>
      <trkpt lat="44.34824" lon="1.66934">
        <ele>316</ele>
        <time>2020-09-14T10:39:01Z</time>
      </trkpt>
      <trkpt lat="44.34724" lon="1.66755">
        <ele>314</ele>
        <time>2020-09-14T10:42:38Z</time>
      </trkpt>
      <trkpt lat="44.34716" lon="1.66722">
        <ele>314</ele>
        <time>2020-09-14T10:43:11Z</time>
      </trkpt>
      <trkpt lat="44.34708" lon="1.66689">
        <ele>314</ele>
        <time>2020-09-14T10:43:45Z</time>
      </trkpt>
      <trkpt lat="44.34724" lon="1.66568">
        <ele>313</ele>
        <time>2020-09-14T10:45:42Z</time>
      </trkpt>
      <trkpt lat="44.34702" lon="1.66446">
        <ele>313</ele>
        <time>2020-09-14T10:47:42Z</time>
      </trkpt>
      <trkpt lat="44.34675" lon="1.66306">
        <ele>310</ele>
        <time>2020-09-14T10:50:01Z</time>
      </trkpt>
      <trkpt lat="44.34653" lon="1.66168">
        <ele>310</ele>
        <time>2020-09-14T10:52:16Z</time>
      </trkpt>
      <trkpt lat="44.34643" lon="1.66089">
        <ele>310</ele>
        <time>2020-09-14T10:53:32Z</time>
      </trkpt>
      <trkpt lat="44.34617" lon="1.65957">
        <ele>311</ele>
        <time>2020-09-14T10:55:43Z</time>
      </trkpt>
      <trkpt lat="44.34583" lon="1.65855">
        <ele>311</ele>
        <time>2020-09-14T10:57:30Z</time>
      </trkpt>
      <trkpt lat="44.34544" lon="1.6576">
        <ele>310</ele>
        <time>2020-09-14T10:59:15Z</time>
      </trkpt>
      <trkpt lat="44.34498" lon="1.65666">
        <ele>308</ele>
        <time>2020-09-14T11:01:03Z</time>
      </trkpt>
      <trkpt lat="44.3446" lon="1.65776">
        <ele>310</ele>
        <time>2020-09-14T11:03:00Z</time>
      </trkpt>
      <trkpt lat="44.34417" lon="1.65947">
        <ele>311</ele>
        <time>2020-09-14T11:05:53Z</time>
      </trkpt>
      <trkpt lat="44.34361" lon="1.66127">
        <ele>315</ele>
        <time>2020-09-14T11:09:00Z</time>
      </trkpt>
      <trkpt lat="44.34315" lon="1.66319">
        <ele>315</ele>
        <time>2020-09-14T11:12:14Z</time>
      </trkpt>
      <trkpt lat="44.34263" lon="1.66542">
        <ele>316</ele>
        <time>2020-09-14T11:15:57Z</time>
      </trkpt>
      <trkpt lat="44.34244" lon="1.66613">
        <ele>317</ele>
        <time>2020-09-14T11:17:10Z</time>
      </trkpt>
      <trkpt lat="44.34212" lon="1.66786">
        <ele>319</ele>
        <time>2020-09-14T11:20:00Z</time>
      </trkpt>
      <trkpt lat="44.34172" lon="1.6704">
        <ele>321</ele>
        <time>2020-09-14T11:24:09Z</time>
      </trkpt>
      <trkpt lat="44.34157" lon="1.67091">
        <ele>323</ele>
        <time>2020-09-14T11:25:01Z</time>
      </trkpt>
      <trkpt lat="44.34135" lon="1.67275">
        <ele>323</ele>
        <time>2020-09-14T11:27:59Z</time>
      </trkpt>
      <trkpt lat="44.34112" lon="1.67442">
        <ele>324</ele>
        <time>2020-09-14T11:30:41Z</time>
      </trkpt>
      <trkpt lat="44.34092" lon="1.67557">
        <ele>323</ele>
        <time>2020-09-14T11:32:34Z</time>
      </trkpt>
      <trkpt lat="44.34062" lon="1.67833">
        <ele>322</ele>
        <time>2020-09-14T11:37:01Z</time>
      </trkpt>
      <trkpt lat="44.34039" lon="1.68065">
        <ele>315</ele>
        <time>2020-09-14T11:40:44Z</time>
      </trkpt>
      <trkpt lat="44.34032" lon="1.68237">
        <ele>308</ele>
        <time>2020-09-14T11:43:29Z</time>
      </trkpt>
      <trkpt lat="44.34037" lon="1.68386">
        <ele>301</ele>
        <time>2020-09-14T11:45:51Z</time>
      </trkpt>
      <trkpt lat="44.34049" lon="1.68604">
        <ele>297</ele>
        <time>2020-09-14T11:49:20Z</time>
      </trkpt>
      <trkpt lat="44.34103" lon="1.68521">
        <ele>297</ele>
        <time>2020-09-14T11:51:07Z</time>
      </trkpt>
      <trkpt lat="44.34184" lon="1.68448">
        <ele>300</ele>
        <time>2020-09-14T11:53:16Z</time>
      </trkpt>
      <trkpt lat="44.34241" lon="1.68387">
        <ele>300</ele>
        <time>2020-09-14T11:54:51Z</time>
      </trkpt>
      <trkpt lat="44.34296" lon="1.68337">
        <ele>301</ele>
        <time>2020-09-14T11:56:19Z</time>
      </trkpt>
      <trkpt lat="44.34364" lon="1.68285">
        <ele>301</ele>
        <time>2020-09-14T11:58:02Z</time>
      </trkpt>
      <trkpt lat="44.34364" lon="1.68358">
        <ele>303</ele>
        <time>2020-09-14T11:59:12Z</time>
      </trkpt>
      <trkpt lat="44.34407" lon="1.68381">
        <ele>307</ele>
        <time>2020-09-14T12:00:13Z</time>
      </trkpt>
      <trkpt lat="44.34416" lon="1.68442">
        <ele>309</ele>
        <time>2020-09-14T12:01:13Z</time>
      </trkpt>
      <trkpt lat="44.34558" lon="1.68511">
        <ele>319</ele>
        <time>2020-09-14T12:04:33Z</time>
      </trkpt>
      <trkpt lat="44.34694" lon="1.68574">
        <ele>327</ele>
        <time>2020-09-14T12:07:45Z</time>
      </trkpt>
      <trkpt lat="44.3483" lon="1.68628">
        <ele>327</ele>
        <time>2020-09-14T12:10:53Z</time>
      </trkpt>
      <trkpt lat="44.35" lon="1.68626">
        <ele>328</ele>
        <time>2020-09-14T12:14:40Z</time>
      </trkpt>
      <trkpt lat="44.35137" lon="1.68604">
        <ele>331</ele>
        <time>2020-09-14T12:17:44Z</time>
      </trkpt>
      <trkpt lat="44.35222" lon="1.68601">
        <ele>330</ele>
        <time>2020-09-14T12:19:38Z</time>
      </trkpt>
      <trkpt lat="44.35224" lon="1.68682">
        <ele>328</ele>
        <time>2020-09-14T12:20:55Z</time>
      </trkpt>
      <trkpt lat="44.35237" lon="1.68841">
        <ele>326</ele>
        <time>2020-09-14T12:23:28Z</time>
      </trkpt>
      <trkpt lat="44.3525" lon="1.6902">
        <ele>322</ele>
        <time>2020-09-14T12:26:19Z</time>
      </trkpt>
      <trkpt lat="44.35314" lon="1.68982">
        <ele>320</ele>
        <time>2020-09-14T12:27:52Z</time>
      </trkpt>
      <trkpt lat="44.3544" lon="1.68908">
        <ele>315</ele>
        <time>2020-09-14T12:30:55Z</time>
      </trkpt>
      <trkpt lat="44.35531" lon="1.68842">
        <ele>315</ele>
        <time>2020-09-14T12:33:11Z</time>
      </trkpt>
      <trkpt lat="44.35653" lon="1.68728">
        <ele>311</ele>
        <time>2020-09-14T12:36:27Z</time>
      </trkpt>
      <trkpt lat="44.35779" lon="1.68614">
        <ele>312</ele>
        <time>2020-09-14T12:39:47Z</time>
      </trkpt>
      <trkpt lat="44.35917" lon="1.68486">
        <ele>308</ele>
        <time>2020-09-14T12:43:28Z</time>
      </trkpt>
      <trkpt lat="44.35985" lon="1.68418">
        <ele>309</ele>
        <time>2020-09-14T12:45:20Z</time>
      </trkpt>
      <trkpt lat="44.36091" lon="1.68309">
        <ele>303</ele>
        <time>2020-09-14T12:48:16Z</time>
      </trkpt>
      <trkpt lat="44.3618" lon="1.6821">
        <ele>298</ele>
        <time>2020-09-14T12:50:47Z</time>
      </trkpt>
      <trkpt lat="44.36129" lon="1.68159">
        <ele>297</ele>
        <time>2020-09-14T12:52:11Z</time>
      </trkpt>
      <trkpt lat="44.36063" lon="1.68108">
        <ele>296</ele>
        <time>2020-09-14T12:53:52Z</time>
      </trkpt>
      <trkpt lat="44.35973" lon="1.68001">
        <ele>297</ele>
        <time>2020-09-14T12:56:29Z</time>
      </trkpt>
      <trkpt lat="44.35889" lon="1.67908">
        <ele>301</ele>
        <time>2020-09-14T12:58:52Z</time>
      </trkpt>
      <trkpt lat="44.35811" lon="1.67813">
        <ele>302</ele>
        <time>2020-09-14T13:01:10Z</time>
      </trkpt>
      <trkpt lat="44.35777" lon="1.67777">
        <ele>302</ele>
        <time>2020-09-14T13:02:07Z</time>
      </trkpt>
      <trkpt lat="44.35847" lon="1.67704">
        <ele>299</ele>
        <time>2020-09-14T13:04:04Z</time>
      </trkpt>
      <trkpt lat="44.35959" lon="1.67618">
        <ele>294</ele>
        <time>2020-09-14T13:06:54Z</time>
      </trkpt>
      <trkpt lat="44.36048" lon="1.67563">
        <ele>292</ele>
        <time>2020-09-14T13:09:04Z</time>
      </trkpt>
      <trkpt lat="44.36142" lon="1.67485">
        <ele>288</ele>
        <time>2020-09-14T13:11:30Z</time>
      </trkpt>
      <trkpt lat="44.36191" lon="1.67402">
        <ele>285</ele>
        <time>2020-09-14T13:13:12Z</time>
      </trkpt>
      <trkpt lat="44.36128" lon="1.67366">
        <ele>288</ele>
        <time>2020-09-14T13:14:43Z</time>
      </trkpt>
      <trkpt lat="44.36073" lon="1.672">
        <ele>297</ele>
        <time>2020-09-14T13:17:38Z</time>
      </trkpt>
      <trkpt lat="44.36039" lon="1.67127">
        <ele>299</ele>
        <time>2020-09-14T13:19:01Z</time>
      </trkpt>
      <trkpt lat="44.36026" lon="1.67083">
        <ele>300</ele>
        <time>2020-09-14T13:19:46Z</time>
      </trkpt>
      <trkpt lat="44.36026" lon="1.67037">
        <ele>300</ele>
        <time>2020-09-14T13:20:30Z</time>
      </trkpt>
      <trkpt lat="44.36036" lon="1.66943">
        <ele>300</ele>
        <time>2020-09-14T13:22:01Z</time>
      </trkpt>
      <trkpt lat="44.3596" lon="1.66905">
        <ele>300</ele>
        <time>2020-09-14T13:23:49Z</time>
      </trkpt>
      <trkpt lat="44.35952" lon="1.66872">
        <ele>300</ele>
        <time>2020-09-14T13:24:22Z</time>
      </trkpt>
      <trkpt lat="44.35908" lon="1.6681">
        <ele>300</ele>
        <time>2020-09-14T13:25:45Z</time>
      </trkpt>
      <trkpt lat="44.35862" lon="1.66731">
        <ele>301</ele>
        <time>2020-09-14T13:27:22Z</time>
      </trkpt>
      <trkpt lat="44.35795" lon="1.66593">
        <ele>303</ele>
        <time>2020-09-14T13:30:02Z</time>
      </trkpt>
      <trkpt lat="44.35725" lon="1.66531">
        <ele>304</ele>
        <time>2020-09-14T13:31:52Z</time>
      </trkpt>
      <trkpt lat="44.35651" lon="1.66446">
        <ele>301</ele>
        <time>2020-09-14T13:34:00Z</time>
      </trkpt>
      <trkpt lat="44.35551" lon="1.66339">
        <ele>300</ele>
        <time>2020-09-14T13:36:48Z</time>
      </trkpt>
      <trkpt lat="44.35494" lon="1.66271">
        <ele>303</ele>
        <time>2020-09-14T13:38:28Z</time>
      </trkpt>
      <trkpt lat="44.35438" lon="1.66237">
        <ele>304</ele>
        <time>2020-09-14T13:39:49Z</time>
      </trkpt>
      <trkpt lat="44.35284" lon="1.66225">
        <ele>304</ele>
        <time>2020-09-14T13:43:15Z</time>
      </trkpt>
      <trkpt lat="44.35206" lon="1.66247">
        <ele>305</ele>
        <time>2020-09-14T13:45:01Z</time>
      </trkpt>
      <trkpt lat="44.35137" lon="1.66274">
        <ele>307</ele>
        <time>2020-09-14T13:46:37Z</time>
      </trkpt>
      <trkpt lat="44.35138" lon="1.66381">
        <ele>309</ele>
        <time>2020-09-14T13:48:19Z</time>
      </trkpt>
      <trkpt lat="44.35121" lon="1.66468">
        <ele>310</ele>
        <time>2020-09-14T13:49:45Z</time>
      </trkpt>
      <trkpt lat="44.35059" lon="1.66604">
        <ele>311</ele>
        <time>2020-09-14T13:52:19Z</time>
      </trkpt>
      <trkpt lat="44.35068" lon="1.66717">
        <ele>312</ele>
        <time>2020-09-14T13:54:08Z</time>
      </trkpt>
      <trkpt lat="44.35046" lon="1.66824">
        <ele>315</ele>
        <time>2020-09-14T13:55:54Z</time>
      </trkpt>
      <trkpt lat="44.35077" lon="1.66845">
        <ele>315</ele>
        <time>2020-09-14T13:56:40Z</time>
      </trkpt>
      <trkpt lat="44.35053" lon="1.66965">
        <ele>316</ele>
        <time>2020-09-14T13:58:39Z</time>
      </trkpt>
      <trkpt lat="44.35021" lon="1.67087">
        <ele>319</ele>
        <time>2020-09-14T14:00:43Z</time>
      </trkpt>
      <trkpt lat="44.35061" lon="1.67121">
        <ele>320</ele>
        <time>2020-09-14T14:01:45Z</time>
      </trkpt>
      <trkpt lat="44.35061" lon="1.67139">
        <ele>320</ele>
        <time>2020-09-14T14:02:02Z</time>
      </trkpt>
    </trkseg>
  </trk>
</gpx>